createdAt,value
2018-11-29T00:00:27.712Z,101366.23
2018-11-29T00:02:56.374Z,101357.53
2018-11-29T00:05:25.501Z,101362.74
2018-11-29T00:07:54.207Z,101304.32
2018-11-29T00:10:22.800Z,101346.22
2018-11-29T00:12:51.419Z,101319.72
2018-11-29T00:15:19.994Z,101319.27
2018-11-29T00:17:48.909Z,101310.56
2018-11-29T00:20:19.174Z,101298.87
2018-11-29T00:22:49.524Z,101250.13
2018-11-29T00:25:18.846Z,101291.94
2018-11-29T00:27:47.740Z,101296.23
2018-11-29T00:30:19.348Z,101286.70
2018-11-29T00:32:48.027Z,101258.09
2018-11-29T00:35:17.239Z,101293.19
2018-11-29T00:37:45.969Z,101259.77
2018-11-29T00:40:19.430Z,101253.17
2018-11-29T00:42:48.052Z,101254.03
2018-11-29T00:45:18.739Z,101227.97
2018-11-29T00:47:47.815Z,101234.02
2018-11-29T00:50:17.562Z,101235.75
2018-11-29T00:52:47.957Z,101225.76
2018-11-29T00:55:20.603Z,101177.98
2018-11-29T00:57:49.294Z,101230.92
2018-11-29T01:00:21.765Z,101211.47
2018-11-29T01:02:50.774Z,101238.71
2018-11-29T01:05:19.374Z,101213.50
2018-11-29T01:07:48.203Z,101200.88
2018-11-29T01:10:17.520Z,101205.22
2018-11-29T01:12:47.049Z,101201.73
2018-11-29T01:15:18.571Z,101219.09
2018-11-29T01:17:48.389Z,101203.86
2018-11-29T01:20:18.030Z,101191.68
2018-11-29T01:22:46.879Z,101202.48
2018-11-29T01:25:16.054Z,101193.36
2018-11-29T01:27:45.935Z,101184.70
2018-11-29T01:30:16.534Z,101212.02
2018-11-29T01:32:45.374Z,101192.05
2018-11-29T01:35:15.130Z,101190.70
2018-11-29T01:37:43.997Z,101187.23
2018-11-29T01:40:17.081Z,101185.95
2018-11-29T01:42:53.100Z,101163.77
2018-11-29T01:45:21.709Z,101167.28
2018-11-29T01:47:50.234Z,101180.73
2018-11-29T01:50:19.008Z,101199.87
2018-11-29T01:52:47.517Z,101192.95
2018-11-29T01:55:16.518Z,101123.00
2018-11-29T01:57:45.115Z,101173.80
2018-11-29T02:00:15.389Z,101178.12
2018-11-29T02:02:44.534Z,101192.91
2018-11-29T02:05:13.483Z,101189.84
2018-11-29T02:07:42.056Z,101176.41
2018-11-29T02:10:18.012Z,101171.61
2018-11-29T02:12:46.734Z,101172.09
2018-11-29T02:15:15.375Z,101144.72
2018-11-29T02:17:43.979Z,101153.80
2018-11-29T02:20:19.125Z,101151.56
2018-11-29T02:22:48.334Z,101158.49
2018-11-29T02:25:16.877Z,101150.26
2018-11-29T02:27:45.936Z,101143.70
2018-11-29T02:30:22.250Z,101143.70
2018-11-29T02:32:51.131Z,101141.48
2018-11-29T02:35:20.021Z,101136.22
2018-11-29T02:37:48.556Z,101124.95
2018-11-29T02:40:18.317Z,101138.85
2018-11-29T02:42:48.029Z,101121.05
2018-11-29T02:45:19.003Z,101119.25
2018-11-29T02:47:47.577Z,101136.19
2018-11-29T02:50:16.415Z,101144.03
2018-11-29T02:52:45.039Z,101127.50
2018-11-29T02:55:13.802Z,101134.04
2018-11-29T02:57:42.668Z,101120.52
2018-11-29T03:00:14.456Z,101139.22
2018-11-29T03:02:43.119Z,101118.76
2018-11-29T03:05:11.821Z,101136.13
2018-11-29T03:07:40.498Z,101121.33
2018-11-29T03:10:11.173Z,101136.97
2018-11-29T03:12:40.118Z,101131.76
2018-11-29T03:15:11.419Z,101130.00
2018-11-29T03:17:40.125Z,101118.27
2018-11-29T03:20:10.319Z,101116.95
2018-11-29T03:22:39.043Z,101126.52
2018-11-29T03:25:10.625Z,101130.81
2018-11-29T03:27:39.183Z,101139.95
2018-11-29T03:30:10.332Z,101132.56
2018-11-29T03:32:38.936Z,101137.78
2018-11-29T03:35:08.219Z,101115.59
2018-11-29T03:37:36.816Z,101127.30
2018-11-29T03:40:07.918Z,101124.27
2018-11-29T03:42:36.435Z,101123.83
2018-11-29T03:45:05.922Z,101104.67
2018-11-29T03:47:34.430Z,101122.09
2018-11-29T03:50:03.046Z,101099.02
2018-11-29T03:52:31.660Z,101108.15
2018-11-29T03:55:00.165Z,101099.42
2018-11-29T03:57:29.135Z,101083.39
2018-11-29T03:59:57.678Z,101069.42
2018-11-29T04:02:26.781Z,101069.02
2018-11-29T04:04:55.312Z,101053.84
2018-11-29T04:07:24.155Z,101046.48
2018-11-29T04:09:52.823Z,101037.33
2018-11-29T04:12:21.386Z,101027.37
2018-11-29T04:14:50.064Z,101041.31
2018-11-29T04:17:18.590Z,101036.10
2018-11-29T04:19:47.842Z,101040.87
2018-11-29T04:22:16.574Z,101035.30
2018-11-29T04:24:45.742Z,101057.78
2018-11-29T04:27:14.304Z,101029.14
2018-11-29T04:29:46.071Z,101028.37
2018-11-29T04:32:14.723Z,101018.88
2018-11-29T04:34:43.843Z,101008.51
2018-11-29T04:37:12.382Z,100996.92
2018-11-29T04:39:41.243Z,100993.97
2018-11-29T04:42:09.923Z,100983.25
2018-11-29T04:44:38.575Z,100981.61
2018-11-29T04:47:07.145Z,100994.66
2018-11-29T04:49:35.667Z,100993.37
2018-11-29T04:52:04.662Z,100921.18
2018-11-29T04:54:33.182Z,100998.66
2018-11-29T04:57:02.258Z,100996.91
2018-11-29T04:59:30.808Z,100992.19
2018-11-29T05:02:00.267Z,100982.21
2018-11-29T05:04:28.846Z,100978.76
2018-11-29T05:06:57.638Z,100978.30
2018-11-29T05:09:26.173Z,100971.79
2018-11-29T05:11:54.710Z,100994.34
2018-11-29T05:14:23.630Z,100976.59
2018-11-29T05:16:52.151Z,100970.08
2018-11-29T05:19:21.038Z,100964.41
2018-11-29T05:21:49.622Z,100951.84
2018-11-29T05:24:18.209Z,100933.59
2018-11-29T05:26:46.802Z,100946.63
2018-11-29T05:29:15.322Z,100942.28
2018-11-29T05:31:44.217Z,100923.20
2018-11-29T05:34:12.835Z,100922.38
2018-11-29T05:36:41.617Z,100851.41
2018-11-29T05:39:10.182Z,100929.34
2018-11-29T05:41:38.768Z,100924.66
2018-11-29T05:44:07.389Z,100905.98
2018-11-29T05:46:36.002Z,100897.34
2018-11-29T05:49:04.746Z,100899.08
2018-11-29T05:51:33.362Z,100905.98
2018-11-29T05:54:02.967Z,100908.66
2018-11-29T05:56:31.642Z,100913.88
2018-11-29T05:59:01.072Z,100926.07
2018-11-29T06:01:34.265Z,100924.36
2018-11-29T06:04:03.331Z,100922.68
2018-11-29T06:06:31.890Z,100940.42
2018-11-29T06:09:00.898Z,100831.61
2018-11-29T06:11:30.422Z,100950.03
2018-11-29T06:13:59.450Z,100960.04
2018-11-29T06:16:27.999Z,100961.79
2018-11-29T06:18:56.967Z,100944.02
2018-11-29T06:21:25.521Z,100948.81
2018-11-29T06:23:54.201Z,100943.62
2018-11-29T06:26:22.874Z,100939.28
2018-11-29T06:28:51.431Z,100954.50
2018-11-29T06:31:20.232Z,100962.72
2018-11-29T06:33:48.846Z,100953.69
2018-11-29T06:36:18.309Z,100925.06
2018-11-29T06:38:47.085Z,100984.94
2018-11-29T06:41:15.972Z,100863.89
2018-11-29T06:43:44.610Z,100958.48
2018-11-29T06:46:13.577Z,100961.50
2018-11-29T06:48:42.786Z,100965.00
2018-11-29T06:51:11.405Z,100976.72
2018-11-29T06:53:45.314Z,100969.74
2018-11-29T06:56:14.023Z,100978.39
2018-11-29T06:58:42.640Z,100961.05
2018-11-29T07:01:11.648Z,100957.14
2018-11-29T07:03:40.238Z,100963.66
2018-11-29T07:06:09.007Z,100935.46
2018-11-29T07:08:37.534Z,100936.77
2018-11-29T07:11:06.247Z,100948.87
2018-11-29T07:13:34.786Z,100935.08
2018-11-29T07:16:03.382Z,100954.54
2018-11-29T07:18:32.223Z,100953.23
2018-11-29T07:21:11.807Z,100947.98
2018-11-29T07:23:40.498Z,100939.73
2018-11-29T07:26:09.125Z,100961.83
2018-11-29T07:28:37.694Z,100960.53
2018-11-29T07:31:06.770Z,100959.19
2018-11-29T07:33:35.296Z,100951.38
2018-11-29T07:36:05.250Z,100956.54
2018-11-29T07:38:36.669Z,100944.41
2018-11-29T07:41:09.051Z,100938.30
2018-11-29T07:43:40.202Z,100944.41
2018-11-29T07:46:12.336Z,100927.89
2018-11-29T07:48:41.016Z,100923.96
2018-11-29T07:51:11.062Z,100926.98
2018-11-29T07:53:41.912Z,100904.48
2018-11-29T07:56:14.800Z,100933.02
2018-11-29T07:58:51.433Z,100956.45
2018-11-29T08:01:15.651Z,100924.34
2018-11-29T08:03:44.456Z,100944.27
2018-11-29T08:06:15.119Z,100936.42
2018-11-29T08:08:45.060Z,100923.35
2018-11-29T08:11:18.163Z,100923.35
2018-11-29T08:13:50.799Z,100907.68
2018-11-29T08:16:20.134Z,100908.52
2018-11-29T08:18:49.143Z,100902.83
2018-11-29T08:21:18.032Z,100900.66
2018-11-29T08:23:47.463Z,100918.87
2018-11-29T08:26:16.471Z,100922.76
2018-11-29T08:28:45.076Z,100914.94
2018-11-29T08:31:13.674Z,100905.80
2018-11-29T08:33:42.614Z,100821.87
2018-11-29T08:36:11.145Z,100903.12
2018-11-29T08:38:40.333Z,100917.91
2018-11-29T08:41:08.855Z,100903.53
2018-11-29T08:43:37.790Z,100892.64
2018-11-29T08:46:06.411Z,100898.73
2018-11-29T08:48:35.314Z,100889.16
2018-11-29T08:51:03.880Z,100890.45
2018-11-29T08:53:32.681Z,100877.03
2018-11-29T08:56:01.303Z,100893.42
2018-11-29T08:58:29.924Z,100893.02
2018-11-29T09:00:58.752Z,100828.94
2018-11-29T09:03:27.312Z,100889.92
2018-11-29T09:05:56.358Z,100882.95
2018-11-29T09:08:24.969Z,100886.86
2018-11-29T09:10:53.675Z,100902.92
2018-11-29T09:13:22.222Z,100898.94
2018-11-29T09:15:50.861Z,100887.21
2018-11-29T09:18:19.730Z,100820.01
2018-11-29T09:20:48.387Z,100878.03
2018-11-29T09:23:17.234Z,100885.41
2018-11-29T09:25:45.898Z,100875.38
2018-11-29T09:28:14.847Z,100891.52
2018-11-29T09:30:43.463Z,100891.48
2018-11-29T09:33:12.183Z,100883.64
2018-11-29T09:35:40.754Z,100838.89
2018-11-29T09:38:09.383Z,100874.92
2018-11-29T09:40:38.132Z,100863.19
2018-11-29T09:43:07.055Z,100861.48
2018-11-29T09:45:36.303Z,100857.08
2018-11-29T09:48:04.949Z,100866.23
2018-11-29T09:50:33.622Z,100874.88
2018-11-29T09:53:02.255Z,100869.25
2018-11-29T09:55:30.857Z,100855.31
2018-11-29T09:57:59.480Z,100865.25
2018-11-29T10:00:29.211Z,100853.14
2018-11-29T10:03:03.566Z,100847.60
2018-11-29T10:05:32.763Z,100862.64
2018-11-29T10:08:01.367Z,100860.94
2018-11-29T10:10:30.498Z,100853.94
2018-11-29T10:12:59.188Z,100845.64
2018-11-29T10:15:27.917Z,100848.69
2018-11-29T10:17:56.640Z,100848.25
2018-11-29T10:20:25.270Z,100843.45
2018-11-29T10:22:53.932Z,100813.25
2018-11-29T10:25:22.552Z,100843.88
2018-11-29T10:28:08.861Z,100848.64
2018-11-29T10:30:43.369Z,100835.66
2018-11-29T10:33:11.950Z,100837.36
2018-11-29T10:35:40.694Z,100778.94
2018-11-29T10:38:09.293Z,100827.75
2018-11-29T10:40:38.515Z,100784.91
2018-11-29T10:43:07.252Z,100837.31
2018-11-29T10:45:36.400Z,100772.85
2018-11-29T10:48:05.676Z,100825.98
2018-11-29T10:50:34.388Z,100835.52
2018-11-29T10:53:03.875Z,100836.41
2018-11-29T10:55:32.660Z,100824.27
2018-11-29T10:58:01.313Z,100829.03
2018-11-29T11:00:39.023Z,100814.69
2018-11-29T11:03:13.380Z,100812.13
2018-11-29T11:05:41.984Z,100810.36
2018-11-29T11:08:10.800Z,100814.36
2018-11-29T11:10:40.384Z,100806.86
2018-11-29T11:13:09.392Z,100815.09
2018-11-29T11:15:38.805Z,100828.59
2018-11-29T11:18:08.923Z,100821.64
2018-11-29T11:20:37.544Z,100816.45
2018-11-29T11:23:06.471Z,100816.45
2018-11-29T11:25:35.027Z,100806.02
2018-11-29T11:28:04.511Z,100800.84
2018-11-29T11:30:33.170Z,100802.52
2018-11-29T11:33:01.856Z,100797.73
2018-11-29T11:35:31.043Z,100801.64
2018-11-29T11:37:59.688Z,100804.31
2018-11-29T11:40:28.250Z,100786.90
2018-11-29T11:42:56.859Z,100797.30
2018-11-29T11:45:25.746Z,100680.51
2018-11-29T11:47:54.366Z,100792.08
2018-11-29T11:50:24.183Z,100783.39
2018-11-29T11:52:53.724Z,100786.03
2018-11-29T11:55:29.685Z,100792.58
2018-11-29T11:57:51.354Z,100787.83
2018-11-29T12:00:21.982Z,100778.67
2018-11-29T12:02:52.075Z,100799.55
2018-11-29T12:05:21.276Z,100785.63
2018-11-29T12:07:49.848Z,100780.06
2018-11-29T12:10:18.755Z,100793.94
2018-11-29T12:12:47.363Z,100799.16
2018-11-29T12:15:16.345Z,100779.13
2018-11-29T12:17:46.003Z,100767.58
2018-11-29T12:20:16.529Z,100759.66
2018-11-29T12:22:45.136Z,100770.59
2018-11-29T12:25:15.914Z,100773.17
2018-11-29T12:27:44.510Z,100757.55
2018-11-29T12:30:15.919Z,100778.38
2018-11-29T12:32:44.500Z,100781.36
2018-11-29T12:35:16.013Z,100766.19
2018-11-29T12:37:44.654Z,100764.48
2018-11-29T12:40:15.635Z,100750.55
2018-11-29T12:42:44.202Z,100747.94
2018-11-29T12:45:14.082Z,100680.12
2018-11-29T12:47:43.171Z,100761.87
2018-11-29T12:50:20.098Z,100616.53
2018-11-29T12:52:49.003Z,100684.37
2018-11-29T12:55:18.656Z,100751.78
2018-11-29T12:57:47.665Z,100731.36
2018-11-29T13:00:18.443Z,100736.58
2018-11-29T13:02:51.264Z,100734.78
2018-11-29T13:05:20.048Z,100754.83
2018-11-29T13:07:48.718Z,100744.41
2018-11-29T13:10:19.867Z,100746.11
2018-11-29T13:12:48.546Z,100721.00
2018-11-29T13:15:18.753Z,100708.83
2018-11-29T13:17:47.454Z,100718.36
2018-11-29T13:20:17.149Z,100712.28
2018-11-29T13:22:45.715Z,100710.13
2018-11-29T13:25:17.351Z,100721.00
2018-11-29T13:27:46.148Z,100701.84
2018-11-29T13:30:16.854Z,100698.49
2018-11-29T13:32:45.721Z,100698.40
2018-11-29T13:35:17.770Z,100691.88
2018-11-29T13:37:48.951Z,100692.31
2018-11-29T13:42:46.208Z,100679.28
2018-11-29T13:45:15.130Z,100675.81
2018-11-29T13:47:43.738Z,100695.80
2018-11-29T13:50:13.916Z,100625.34
2018-11-29T13:52:42.495Z,100681.05
2018-11-29T13:55:12.678Z,100666.71
2018-11-29T13:57:41.957Z,100672.83
2018-11-29T14:00:15.957Z,100616.57
2018-11-29T14:02:47.049Z,100654.61
2018-11-29T14:05:14.243Z,100662.87
2018-11-29T14:07:43.080Z,100668.98
2018-11-29T14:10:16.279Z,100656.88
2018-11-29T14:12:45.817Z,100670.72
2018-11-29T14:15:17.678Z,100664.17
2018-11-29T14:17:46.338Z,100654.42
2018-11-29T14:20:15.238Z,100667.27
2018-11-29T14:22:44.305Z,100531.25
2018-11-29T14:25:14.137Z,100658.64
2018-11-29T14:27:45.055Z,100638.23
2018-11-29T14:30:22.483Z,100658.68
2018-11-29T14:32:51.319Z,100651.32
2018-11-29T14:35:19.953Z,100639.12
2018-11-29T14:37:48.540Z,100614.77
2018-11-29T14:40:19.872Z,100632.61
2018-11-29T14:42:48.583Z,100634.28
2018-11-29T14:45:18.311Z,100626.44
2018-11-29T14:47:47.012Z,100618.21
2018-11-29T14:50:48.430Z,100568.93
2018-11-29T14:53:17.524Z,100625.62
2018-11-29T14:55:46.188Z,100632.61
2018-11-29T14:58:19.593Z,100516.28
2018-11-29T15:00:43.847Z,100612.16
2018-11-29T15:03:14.330Z,100593.98
2018-11-29T15:05:43.180Z,100608.25
2018-11-29T15:08:11.981Z,100603.97
2018-11-29T15:10:40.531Z,100603.54
2018-11-29T15:13:10.816Z,100603.88
2018-11-29T15:15:40.099Z,100592.98
2018-11-29T15:18:09.507Z,100585.63
2018-11-29T15:20:46.357Z,100589.97
2018-11-29T15:23:16.250Z,100587.27
2018-11-29T15:25:45.332Z,100589.87
2018-11-29T15:28:14.119Z,100571.80
2018-11-29T15:30:42.871Z,100594.22
2018-11-29T15:33:11.498Z,100580.28
2018-11-29T15:35:40.189Z,100585.50
2018-11-29T15:38:09.038Z,100519.03
2018-11-29T15:40:37.648Z,100564.58
2018-11-29T15:43:06.675Z,100468.82
2018-11-29T15:45:35.932Z,100565.38
2018-11-29T15:48:04.780Z,100501.94
2018-11-29T15:50:33.385Z,100554.88
2018-11-29T15:53:02.322Z,100553.14
2018-11-29T15:55:31.036Z,100555.71
2018-11-29T15:57:59.739Z,100546.59
2018-11-29T16:00:29.683Z,100538.37
2018-11-29T16:03:00.504Z,100534.86
2018-11-29T16:05:30.007Z,100531.78
2018-11-29T16:07:59.345Z,100531.78
2018-11-29T16:10:28.588Z,100525.73
2018-11-29T16:12:57.396Z,100520.88
2018-11-29T16:15:26.218Z,100524.75
2018-11-29T16:17:54.993Z,100517.41
2018-11-29T16:20:26.832Z,100520.88
2018-11-29T16:22:55.801Z,100513.45
2018-11-29T16:25:24.710Z,100513.85
2018-11-29T16:27:53.510Z,100500.81
2018-11-29T16:30:26.756Z,100470.87
2018-11-29T16:32:56.649Z,100435.64
2018-11-29T16:35:25.663Z,100478.98
2018-11-29T16:37:54.843Z,100389.17
2018-11-29T16:40:23.557Z,100482.02
2018-11-29T16:42:52.560Z,100479.45
2018-11-29T16:45:21.150Z,100466.77
2018-11-29T16:47:49.802Z,100474.55
2018-11-29T16:50:18.515Z,100464.99
2018-11-29T16:52:47.814Z,100455.40
2018-11-29T16:55:16.608Z,100404.77
2018-11-29T16:57:48.492Z,100453.63
2018-11-29T17:00:19.622Z,100453.66
2018-11-29T17:02:48.456Z,100438.01
2018-11-29T17:05:17.141Z,100457.09
2018-11-29T17:07:45.780Z,100434.02
2018-11-29T17:10:16.799Z,100423.98
2018-11-29T17:12:48.752Z,100418.81
2018-11-29T17:15:18.342Z,100417.90
2018-11-29T17:17:47.318Z,100416.59
2018-11-29T17:20:17.985Z,100412.68
2018-11-29T17:22:46.883Z,100425.13
2018-11-29T17:25:15.487Z,100416.01
2018-11-29T17:27:44.545Z,100416.87
2018-11-29T17:30:22.790Z,100407.70
2018-11-29T17:32:54.598Z,100399.41
2018-11-29T17:35:23.206Z,100398.97
2018-11-29T17:37:52.298Z,100381.55
2018-11-29T17:40:21.745Z,100373.36
2018-11-29T17:42:51.144Z,100364.50
2018-11-29T17:45:26.725Z,100371.42
2018-11-29T17:47:59.431Z,100368.73
2018-11-29T17:50:33.086Z,100367.38
2018-11-29T17:53:01.830Z,100366.03
2018-11-29T17:55:30.786Z,100317.39
2018-11-29T17:57:59.469Z,100359.03
2018-11-29T18:00:29.708Z,100356.73
2018-11-29T18:02:58.382Z,100350.61
2018-11-29T18:05:27.371Z,100342.30
2018-11-29T18:07:55.958Z,100351.39
2018-11-29T18:10:29.051Z,100354.35
2018-11-29T18:13:03.353Z,100347.35
2018-11-29T18:15:33.736Z,100361.66
2018-11-29T18:18:02.671Z,100356.40
2018-11-29T18:20:31.270Z,100340.25
2018-11-29T18:23:00.307Z,100325.44
2018-11-29T18:25:28.890Z,100304.94
2018-11-29T18:27:57.911Z,100297.50
2018-11-29T18:30:26.557Z,100307.46
2018-11-29T18:32:55.679Z,100312.16
2018-11-29T18:35:24.388Z,100309.06
2018-11-29T18:37:53.045Z,100321.20
2018-11-29T18:40:22.462Z,100295.16
2018-11-29T18:42:55.541Z,100307.77
2018-11-29T18:45:24.202Z,100308.59
2018-11-29T18:47:53.789Z,100308.98
2018-11-29T18:50:23.560Z,100310.23
2018-11-29T18:52:52.734Z,100300.23
2018-11-29T18:55:23.314Z,100306.77
2018-11-29T18:57:52.757Z,100310.19
2018-11-29T19:00:24.656Z,100317.63
2018-11-29T19:02:56.928Z,100256.33
2018-11-29T19:05:22.447Z,100307.09
2018-11-29T19:07:51.721Z,100301.45
2018-11-29T19:10:20.823Z,100310.50
2018-11-29T19:12:53.927Z,100311.80
2018-11-29T19:15:22.849Z,100307.84
2018-11-29T19:17:51.463Z,100298.66
2018-11-29T19:20:20.750Z,100309.92
2018-11-29T19:22:50.442Z,100292.27
2018-11-29T19:25:20.103Z,100300.59
2018-11-29T19:27:48.878Z,100184.15
2018-11-29T19:30:22.899Z,100306.12
2018-11-29T19:33:10.713Z,100293.45
2018-11-29T19:35:39.369Z,100301.24
2018-11-29T19:38:08.478Z,100297.28
2018-11-29T19:40:37.280Z,100303.32
2018-11-29T19:43:07.212Z,100275.91
2018-11-29T19:45:36.338Z,100302.93
2018-11-29T19:48:05.495Z,100290.27
2018-11-29T19:50:34.198Z,100294.18
2018-11-29T19:53:03.484Z,100308.45
2018-11-29T19:55:33.304Z,100320.20
2018-11-29T19:58:02.262Z,100311.06
2018-11-29T20:00:31.585Z,100315.37
2018-11-29T20:03:00.532Z,100306.23
2018-11-29T20:05:29.782Z,100296.21
2018-11-29T20:07:58.825Z,100303.13
2018-11-29T20:10:28.966Z,100306.61
2018-11-29T20:13:03.504Z,100304.83
2018-11-29T20:15:32.506Z,100316.19
2018-11-29T20:18:01.818Z,100298.25
2018-11-29T20:20:30.845Z,100289.16
2018-11-29T20:23:00.066Z,100289.11
2018-11-29T20:25:29.211Z,100282.14
2018-11-29T20:27:57.998Z,100292.59
2018-11-29T20:30:27.365Z,100282.96
2018-11-29T20:32:56.262Z,100269.48
2018-11-29T20:35:26.714Z,100264.68
2018-11-29T20:37:55.887Z,100267.29
2018-11-29T20:40:26.558Z,100238.53
2018-11-29T20:42:59.897Z,100249.89
2018-11-29T20:45:32.377Z,100246.39
2018-11-29T20:48:01.566Z,100249.01
2018-11-29T20:50:30.742Z,100251.63
2018-11-29T20:53:00.207Z,100256.74
2018-11-29T20:55:30.342Z,100281.56
2018-11-29T20:57:59.417Z,100284.56
2018-11-29T21:00:28.188Z,100293.31
2018-11-29T21:02:56.920Z,100316.82
2018-11-29T21:05:26.044Z,100319.44
2018-11-29T21:07:59.539Z,100257.80
2018-11-29T21:10:29.333Z,100305.46
2018-11-29T21:13:02.281Z,100290.27
2018-11-29T21:15:30.915Z,100301.15
2018-11-29T21:17:59.554Z,100302.45
2018-11-29T21:20:29.281Z,100302.03
2018-11-29T21:22:57.951Z,100302.03
2018-11-29T21:25:27.565Z,100234.01
2018-11-29T21:27:56.215Z,100283.65
2018-11-29T21:30:25.282Z,100294.09
2018-11-29T21:32:54.142Z,100290.23
2018-11-29T21:35:24.036Z,100284.56
2018-11-29T21:37:53.435Z,100295.41
2018-11-29T21:40:25.974Z,100295.41
2018-11-29T21:42:54.553Z,100289.78
2018-11-29T21:45:25.468Z,100287.08
2018-11-29T21:47:54.241Z,100281.90
2018-11-29T21:50:24.204Z,100271.50
2018-11-29T21:52:53.096Z,100277.64
2018-11-29T21:55:21.806Z,100271.11
2018-11-29T21:57:50.362Z,100252.41
2018-11-29T22:00:21.551Z,100256.84
2018-11-29T22:02:54.754Z,100272.52
2018-11-29T22:05:23.343Z,100272.42
2018-11-29T22:07:52.418Z,100278.52
2018-11-29T22:10:21.989Z,100258.48
2018-11-29T22:12:51.213Z,100288.09
2018-11-29T22:15:19.792Z,100291.09
2018-11-29T22:18:24.626Z,100288.09
2018-11-29T22:20:59.478Z,100292.79
2018-11-29T22:23:28.427Z,100171.98
2018-11-29T22:25:58.325Z,100298.93
2018-11-29T22:28:27.218Z,100298.54
2018-11-29T22:30:56.237Z,100294.57
2018-11-29T22:33:25.063Z,100301.94
2018-11-29T22:35:53.607Z,100300.58
2018-11-29T22:38:22.288Z,100293.61
2018-11-29T22:40:51.018Z,100286.69
2018-11-29T22:43:19.584Z,100281.04
2018-11-29T22:45:49.033Z,100224.88
2018-11-29T22:48:17.603Z,100284.56
2018-11-29T22:50:46.255Z,100280.55
2018-11-29T22:53:14.808Z,100282.77
2018-11-29T22:55:43.458Z,100273.11
2018-11-29T22:58:11.966Z,100285.38
2018-11-29T23:00:45.758Z,100293.70
2018-11-29T23:03:14.373Z,100285.87
2018-11-29T23:05:43.498Z,100287.22
2018-11-29T23:08:12.050Z,100276.23
2018-11-29T23:10:40.660Z,100267.98
2018-11-29T23:13:09.319Z,100272.42
2018-11-29T23:15:37.875Z,100272.91
2018-11-29T23:18:07.466Z,100268.08
2018-11-29T23:20:35.988Z,100255.93
2018-11-29T23:23:05.250Z,100259.95
2018-11-29T23:25:33.906Z,100258.48
2018-11-29T23:28:02.698Z,100267.59
2018-11-29T23:30:31.346Z,100267.20
2018-11-29T23:33:00.260Z,100277.55
2018-11-29T23:35:28.920Z,100261.88
2018-11-29T23:37:57.480Z,100284.56
2018-11-29T23:40:26.370Z,100273.39
2018-11-29T23:42:54.886Z,100273.11
2018-11-29T23:45:23.888Z,100217.14
2018-11-29T23:47:52.440Z,100268.41
2018-11-29T23:50:21.581Z,100263.57
2018-11-29T23:52:50.167Z,100258.25
2018-11-29T23:55:20.358Z,100269.61
2018-11-29T23:57:48.938Z,100254.33
